North Platte Regional Airport Lee Bird Field
KLBF : now visible

Airfield :











YOU CAN JOIN US ON...

 
LOGIN :

Register | Disclaimer

   EN    FR    IT 

 









Legend :    VFR   Marginal VFR   IFR   Intensive IFR   Very Intensive IFR
Visi :
Ceiling :
>= 8 km
>= 3000ft
5 to 8 km
1000 to 3000 ft
1500m to 5 km
500 to 1000 ft
800 to 1500m
200 to 500 ft
< 800m
< 200 ft
Symbols :   Thunderstorms  Fog  Heavy snow  Heavy precipitations  Wind > 20 kt






- Airport Elevation : 2777 ft
- IATA code : LBF


KLBF - North Platte Regional Lee Bird Field

CURRENT METAR :
  • 030102Z AUTO 36016G22KT 10SM BKN018 OVC046 M06/M10 A3014 RMK AO2 T10611100

EXPIRED METARs :
  • 030013Z AUTO 01013G26KT 10SM SCT020 BKN035 OVC045 M06/M10 A3010 RMK AO2 PK WND 01026/0005 T10611100
  • 022353Z AUTO 01016G23KT 10SM OVC019 M06/M10 A3010 RMK AO2 PK WND 01026/2300 SLP228 60000 T10611100 11044 21061 53026

TAF KLBF
Valid from the 03 at 00:00 until the 04 at 00:00 UTC


022320Z 0300/0324 36019G27KT P6SM -SN OVC019
FM030200 35017G24KT P6SM -SN OVC025
FM030800 34012KT P6SM BKN070
FM032000 35010KT P6SM SKC



MET'MAP, your aeronautical weather chart ! - Copyright ORBIFLY December 2007 - Disclaimer

ORBIFLY MET'MAP TEAM :

Programming & Development : Alexandra Zaïnal
Concept & original design : Baudouin d'Aumeries
Assistance for programming : Marc-Olivier Méhu
Technical & hardware support : Manuel Goepfert

Contact : metmap@orbifly.com




SOURCES & CREDITS :

   NOAA       Earth
Advisory